Terminal Aerodrome Forecast
Issued by NWS Shreveport, LA

Home | Current Version | Previous Version | Text Only | Print | Product List | Glossary On
Versions: 1 2 3 4 5 6 7 8 9 10 11 12 13
000
FTUS44 KSHV 191141
TAFLFK
TAF
KLFK 191141Z 1912/2012 33005KT P6SM FEW250
     FM191400 01012G18KT P6SM SKC
     FM200000 05004KT P6SM SCT250=

USA.gov is the U.S. government's official web portal to all federal, state and local government web resources and services.